Time;durP1;ratioP1;P1;durP2;ratioP2;P2;SDS_P1;SDS_P2;PMS_P1;PMS_P2;Temp;Humidity;BMP_temperature;BMP_pressure;BME280_temperature;BME280_humidity;BME280_pressure;Samples;Min_cycle;Max_cycle;Signal;HPM_P1;HPM_P2
2022/02/05 00:01:53;;;;;;;28.90;12.60;;;;;-1.40;97371.00;;;;111011;1250;41208;-61
2022/02/05 00:04:23;;;;;;;26.50;12.30;;;;;-1.50;97370.00;;;;111076;1247;41146;-61
2022/02/05 00:06:54;;;;;;;24.10;10.80;;;;;-1.50;97372.60;;;;111018;1249;41131;-60
2022/02/05 00:42:33;;;;;;;34.70;16.10;;;;;-1.90;97402.00;;;;110945;1249;42033;-63
2022/02/05 00:45:07;;;;;;;41.00;20.40;;;;;-1.90;97395.20;;;;111007;1249;41140;-63
2022/02/05 00:47:41;;;;;;;45.90;19.40;;;;;-2.00;97395.20;;;;110972;1248;41139;-62
2022/02/05 00:50:18;;;;;;;33.10;14.80;;;;;-2.00;97390.80;;;;111080;1248;41656;-63
2022/02/05 00:52:59;;;;;;;31.80;15.00;;;;;-2.02;97391.60;;;;110970;1249;42205;-59
2022/02/05 00:55:36;;;;;;;35.90;18.00;;;;;-2.10;97392.60;;;;110965;1249;41151;-60
2022/02/05 00:58:06;;;;;;;37.50;18.20;;;;;-2.10;97394.00;;;;111063;1248;41897;-59
2022/02/05 01:00:37;;;;;;;35.50;17.40;;;;;-2.20;97395.40;;;;111059;1248;41257;-59
2022/02/05 01:03:06;;;;;;;;;;;;;-2.20;97391.80;;;;111016;1250;41232;-61
2022/02/05 01:05:36;;;;;;;27.20;12.00;;;;;-2.28;97394.20;;;;110969;1248;41518;-63
2022/02/05 01:08:06;;;;;;;21.10;10.30;;;;;-2.30;97403.00;;;;111012;1249;41674;-60
2022/02/05 01:10:35;;;;;;;31.60;14.50;;;;;-2.30;97395.80;;;;110947;1250;41159;-62
2022/02/05 01:13:09;;;;;;;38.60;18.30;;;;;-2.30;97391.40;;;;111073;1248;41159;-62
2022/02/05 01:15:54;;;;;;;39.90;19.10;;;;;-2.50;97404.00;;;;111040;1248;41578;-62
2022/02/05 01:18:24;;;;;;;29.30;14.80;;;;;-2.50;97390.00;;;;111037;1248;41139;-62
2022/02/05 01:23:49;;;;;;;29.80;14.00;;;;;-2.60;97393.40;;;;111078;1249;41143;-62
2022/02/05 01:26:27;;;;;;;27.70;12.70;;;;;-2.60;97387.40;;;;111037;1248;41245;-62
2022/02/05 01:31:56;;;;;;;31.40;15.10;;;;;-2.56;97379.00;;;;110799;1250;41490;-63
2022/02/05 01:34:34;;;;;;;30.30;13.10;;;;;-2.50;97376.40;;;;111128;1248;41782;-64
2022/02/05 01:51:07;;;;;;;23.20;11.20;;;;;-2.50;97373.20;;;;110845;1249;43511;-64
2022/02/05 01:56:39;;;;;;;24.50;10.90;;;;;-2.50;97367.60;;;;110849;1249;41149;-59
2022/02/05 01:59:18;;;;;;;24.50;11.10;;;;;-2.50;97371.40;;;;111014;1250;41979;-62
2022/02/05 02:04:55;;;;;;;23.30;10.80;;;;;-2.50;97371.80;;;;110906;1249;41612;-61
2022/02/05 02:16:06;;;;;;;22.90;10.70;;;;;-2.50;97368.60;;;;110891;1250;40796;-62
2022/02/05 02:18:53;;;;;;;25.00;12.30;;;;;-2.50;97369.20;;;;110932;1247;41312;-62
2022/02/05 02:24:07;;;;;;;22.10;10.80;;;;;-2.58;97358.00;;;;110944;1247;41169;-61
2022/02/05 02:26:51;;;;;;;22.20;10.40;;;;;-2.60;97361.00;;;;111022;1249;41320;-63
2022/02/05 02:32:10;;;;;;;22.10;9.30;;;;;-2.50;97361.20;;;;111034;1250;41200;-60
2022/02/05 02:34:45;;;;;;;18.70;9.60;;;;;-2.50;97356.40;;;;110990;1248;41225;-60
2022/02/05 02:37:21;;;;;;;20.60;9.70;;;;;-2.50;97357.80;;;;110937;1250;41159;-61
2022/02/05 02:42:40;;;;;;;20.10;9.80;;;;;-2.42;97347.60;;;;111025;1247;41153;-60
2022/02/05 02:45:10;;;;;;;18.60;9.20;;;;;-2.40;97354.20;;;;110898;1250;41950;-61
2022/02/05 02:47:43;;;;;;;19.80;9.30;;;;;-2.40;97351.60;;;;110987;1249;41260;-61
2022/02/05 02:50:31;;;;;;;20.80;9.60;;;;;-2.40;97355.20;;;;110995;1249;41262;-58
2022/02/05 02:58:41;;;;;;;17.00;7.80;;;;;-2.38;97347.80;;;;111060;1248;42285;-60
2022/02/05 03:01:17;;;;;;;21.20;9.40;;;;;-2.30;97346.00;;;;110904;1248;41155;-60
2022/02/05 03:03:47;;;;;;;21.80;11.20;;;;;-2.30;97344.00;;;;110935;1247;41249;-60
2022/02/05 03:06:17;;;;;;;27.00;11.40;;;;;-2.30;97347.60;;;;111097;1247;41173;-62
2022/02/05 03:08:50;;;;;;;20.30;10.20;;;;;-2.30;97339.20;;;;110944;1249;41266;-60
2022/02/05 03:11:23;;;;;;;21.20;9.90;;;;;-2.40;97342.20;;;;111047;1248;42413;-62
2022/02/05 03:13:53;;;;;;;20.30;10.20;;;;;-2.40;97345.80;;;;110903;1249;42093;-62
2022/02/05 03:16:26;;;;;;;22.80;10.20;;;;;-2.40;97346.20;;;;111079;1248;41141;-62
2022/02/05 03:21:26;;;;;;;22.50;11.40;;;;;-2.50;97346.20;;;;111119;1248;42013;-62
2022/02/05 03:23:56;;;;;;;23.10;10.70;;;;;-2.60;97350.60;;;;110999;1248;41255;-61
2022/02/05 03:26:26;;;;;;;21.30;11.50;;;;;-2.60;97350.20;;;;111009;1249;41992;-60
2022/02/05 03:28:55;;;;;;;20.60;10.80;;;;;-2.60;97355.60;;;;111100;1247;41995;-61
2022/02/05 03:31:24;;;;;;;20.20;10.20;;;;;-2.70;97354.80;;;;111006;1249;41167;-59
2022/02/05 03:33:54;;;;;;;18.40;9.20;;;;;-2.70;97351.20;;;;111016;1248;41752;-61
2022/02/05 03:36:25;;;;;;;18.10;9.00;;;;;-2.76;97357.40;;;;111018;1250;41449;-61
2022/02/05 03:38:55;;;;;;;18.40;8.90;;;;;-2.80;97356.80;;;;111014;1247;41879;-60
2022/02/05 03:41:24;;;;;;;19.80;9.60;;;;;-2.80;97359.40;;;;111080;1248;41167;-63
2022/02/05 03:43:54;;;;;;;23.60;10.20;;;;;-2.80;97364.20;;;;110946;1247;42171;-61
2022/02/05 03:46:24;;;;;;;19.80;8.90;;;;;-2.90;97357.80;;;;110931;1248;41648;-63
2022/02/05 03:48:55;;;;;;;18.10;8.90;;;;;-2.90;97368.40;;;;111074;1248;41281;-61
2022/02/05 03:51:24;;;;;;;16.80;8.30;;;;;-2.90;97368.00;;;;110956;1248;41764;-60
2022/02/05 03:53:55;;;;;;;15.20;7.30;;;;;-2.90;97371.00;;;;111002;1249;41248;-60
2022/02/05 03:56:25;;;;;;;18.10;8.80;;;;;-2.90;97373.00;;;;111114;1248;41654;-59
2022/02/05 03:58:54;;;;;;;19.90;9.20;;;;;-2.90;97367.80;;;;110957;1250;41313;-62
2022/02/05 04:01:24;;;;;;;20.70;9.60;;;;;-2.88;97365.00;;;;110739;1250;42398;-62
2022/02/05 04:03:54;;;;;;;20.20;9.40;;;;;-2.80;97366.60;;;;111054;1248;42082;-62
2022/02/05 04:06:24;;;;;;;20.50;9.60;;;;;-2.70;97362.00;;;;111116;1248;41144;-62
2022/02/05 04:08:57;;;;;;;18.10;8.90;;;;;-2.66;97350.60;;;;111043;1248;41247;-61
2022/02/05 04:11:31;;;;;;;20.90;10.30;;;;;-2.60;97352.00;;;;111114;1248;41485;-61
2022/02/05 04:16:50;;;;;;;22.80;9.70;;;;;-2.42;97356.20;;;;111010;1248;41183;-61
2022/02/05 04:19:20;;;;;;;18.40;8.40;;;;;-2.40;97349.20;;;;111141;1248;41291;-61
2022/02/05 04:21:50;;;;;;;16.60;7.50;;;;;-2.30;97345.00;;;;111130;1248;41156;-60
2022/02/05 04:24:20;;;;;;;16.50;7.30;;;;;-2.20;97363.00;;;;111166;1248;41142;-63
2022/02/05 04:26:49;;;;;;;18.40;7.90;;;;;-2.18;97371.80;;;;111074;1248;41116;-65
2022/02/05 04:29:20;;;;;;;16.00;7.30;;;;;-2.10;97360.60;;;;111114;1248;41369;-59
2022/02/05 04:31:50;;;;;;;16.00;7.70;;;;;-2.00;97352.20;;;;111100;1248;42394;-61
2022/02/05 04:34:19;;;;;;;19.20;8.50;;;;;-2.00;97355.00;;;;111084;1248;42021;-62
2022/02/05 04:36:50;;;;;;;18.90;8.70;;;;;-2.00;97356.40;;;;111080;1248;42543;-61
2022/02/05 04:39:21;;;;;;;18.50;8.30;;;;;-2.02;97351.80;;;;111087;1248;41597;-60
2022/02/05 04:41:56;;;;;;;;;;;;;-2.00;97349.00;;;;111116;1248;41458;-61
2022/02/05 04:45:03;;;;;;;18.70;8.30;;;;;-2.00;97352.80;;;;111059;1248;41690;-60
2022/02/05 04:58:52;;;;;;;20.30;9.90;;;;;-1.90;97358.80;;;;111038;1248;41702;-62
2022/02/05 05:09:55;;;;;;;13.70;6.10;;;;;-1.60;97375.00;;;;111064;1249;41172;-61
2022/02/05 05:20:32;;;;;;;52.50;21.50;;;;;-1.40;97374.80;;;;111017;1249;41340;-62
2022/02/05 05:23:01;;;;;;;39.70;17.60;;;;;-1.36;97374.40;;;;110977;1248;41260;-61
2022/02/05 05:25:30;;;;;;;32.50;14.90;;;;;-1.40;97375.00;;;;111006;1248;42115;-61
2022/02/05 05:28:01;;;;;;;23.00;11.10;;;;;-1.30;97371.80;;;;110931;1249;41190;-62
2022/02/05 05:30:31;;;;;;;23.10;9.90;;;;;-1.30;97370.80;;;;111021;1248;41616;-59
2022/02/05 05:33:01;;;;;;;17.20;8.20;;;;;-1.30;97375.20;;;;110989;1248;42069;-62
2022/02/05 05:35:30;;;;;;;24.70;11.80;;;;;-1.28;97374.00;;;;111113;1248;42010;-61
2022/02/05 05:37:59;;;;;;;37.60;16.20;;;;;-1.20;97376.00;;;;111049;1247;41260;-61
2022/02/05 05:40:30;;;;;;;36.10;15.10;;;;;-1.20;97374.60;;;;110881;1248;42272;-59
2022/02/05 05:43:03;;;;;;;34.30;15.80;;;;;-1.20;97372.60;;;;111060;1248;41128;-60
2022/02/05 05:46:00;;;;;;;25.00;11.00;;;;;-1.12;97376.00;;;;110987;1247;41138;-62
2022/02/05 05:48:44;;;;;;;27.70;12.30;;;;;-1.10;97373.20;;;;111047;1248;41259;-64
2022/02/05 05:51:13;;;;;;;27.60;12.80;;;;;-1.10;97380.00;;;;111044;1247;41169;-60
2022/02/05 05:53:42;;;;;;;26.10;12.50;;;;;-1.00;97385.80;;;;110965;1250;41720;-61
2022/02/05 05:56:12;;;;;;;26.30;12.70;;;;;-1.00;97389.20;;;;111085;1248;41928;-61
2022/02/05 05:58:41;;;;;;;24.30;11.10;;;;;-0.92;97387.80;;;;111110;1248;41258;-61
2022/02/05 06:01:10;;;;;;;25.50;11.80;;;;;-0.90;97384.20;;;;111081;1247;41512;-62
2022/02/05 06:03:39;;;;;;;23.10;11.30;;;;;-0.80;97384.00;;;;111124;1248;41936;-61
2022/02/05 06:06:09;;;;;;;26.00;11.50;;;;;-0.80;97380.00;;;;111079;1247;41260;-62
2022/02/05 06:08:38;;;;;;;23.30;11.30;;;;;-0.74;97374.20;;;;111032;1249;41157;-60
2022/02/05 06:11:07;;;;;;;25.60;12.10;;;;;-0.70;97374.60;;;;110837;1249;41179;-60
2022/02/05 06:13:37;;;;;;;26.50;12.90;;;;;-0.70;97388.00;;;;111025;1248;41248;-61
2022/02/05 06:16:11;;;;;;;34.50;14.50;;;;;-0.70;97389.60;;;;111005;1246;41218;-61
2022/02/05 06:18:40;;;;;;;32.30;15.10;;;;;-0.64;97389.00;;;;111093;1248;41149;-61
2022/02/05 06:21:09;;;;;;;32.60;13.60;;;;;-0.60;97385.20;;;;110855;1250;41256;-59
2022/02/05 06:23:39;;;;;;;24.20;11.50;;;;;-0.60;97379.40;;;;110931;1248;42587;-63
2022/02/05 06:26:08;;;;;;;18.90;7.80;;;;;-0.50;97385.00;;;;110850;1248;41143;-59
2022/02/05 06:28:38;;;;;;;22.90;10.10;;;;;-0.50;97383.00;;;;111218;1248;41140;-62
2022/02/05 06:31:07;;;;;;;25.90;12.10;;;;;-0.48;97390.20;;;;111113;1248;41150;-63
2022/02/05 06:33:37;;;;;;;28.50;13.20;;;;;-0.40;97389.80;;;;111098;1249;41983;-61
2022/02/05 06:36:06;;;;;;;25.40;11.90;;;;;-0.40;97390.40;;;;111034;1247;42098;-62
2022/02/05 06:38:36;;;;;;;24.40;10.70;;;;;-0.30;97389.60;;;;111115;1248;41254;-59
2022/02/05 06:41:07;;;;;;;26.70;12.30;;;;;-0.30;97389.80;;;;110943;1249;41269;-60
2022/02/05 06:43:37;;;;;;;24.80;12.20;;;;;-0.20;97383.80;;;;111015;1248;41148;-61
2022/02/05 06:46:06;;;;;;;26.70;12.70;;;;;-0.20;97385.20;;;;111093;1247;41644;-57
2022/02/05 06:48:40;;;;;;;31.40;14.70;;;;;-0.18;97387.20;;;;111004;1250;41141;-60
2022/02/05 06:51:09;;;;;;;32.40;15.60;;;;;-0.10;97384.20;;;;111111;1247;41152;-61
2022/02/05 06:53:39;;;;;;;31.10;15.50;;;;;-0.10;97374.60;;;;111037;1248;41130;-60
2022/02/05 06:56:08;;;;;;;28.60;14.00;;;;;0.00;97382.60;;;;110958;1248;42171;-60
2022/02/05 06:58:37;;;;;;;28.90;13.00;;;;;0.00;97384.00;;;;111005;1249;41152;-60
2022/02/05 07:01:07;;;;;;;27.90;13.20;;;;;0.10;97391.20;;;;111081;1247;41278;-62
2022/02/05 07:03:37;;;;;;;26.40;12.40;;;;;0.10;97385.20;;;;111071;1247;41246;-62
2022/02/05 07:06:07;;;;;;;57.00;21.30;;;;;0.20;97387.60;;;;111033;1248;41137;-61
2022/02/05 07:08:36;;;;;;;47.40;18.00;;;;;0.20;97389.40;;;;111113;1247;42151;-61
2022/02/05 07:11:06;;;;;;;30.30;13.60;;;;;0.30;97393.60;;;;111057;1247;41733;-61
2022/02/05 07:13:37;;;;;;;22.80;11.50;;;;;0.40;97385.80;;;;111070;1247;41667;-62
2022/02/05 07:16:19;;;;;;;25.00;11.60;;;;;0.50;97385.00;;;;111016;1249;41183;-60
2022/02/05 07:19:15;;;;;;;31.90;14.70;;;;;0.50;97386.20;;;;110808;1248;42201;-62
2022/02/05 07:21:49;;;;;;;33.80;16.00;;;;;0.60;97389.80;;;;111003;1248;41611;-62
2022/02/05 07:29:41;;;;;;;29.90;13.30;;;;;0.70;97384.80;;;;111054;1248;41278;-60
2022/02/05 07:32:12;;;;;;;25.70;13.60;;;;;0.80;97376.40;;;;111066;1246;42444;-63
2022/02/05 07:34:41;;;;;;;31.50;15.00;;;;;0.80;97378.20;;;;110972;1247;41155;-60
2022/02/05 07:37:11;;;;;;;31.50;14.00;;;;;0.84;97372.20;;;;110856;1250;41711;-60
2022/02/05 07:39:45;;;;;;;39.20;19.00;;;;;0.90;97378.80;;;;110967;1248;43148;-59
2022/02/05 07:42:18;;;;;;;44.50;21.80;;;;;0.90;97363.40;;;;110991;1247;41668;-61
2022/02/05 07:44:52;;;;;;;47.10;22.50;;;;;1.00;97365.60;;;;110801;1249;41156;-60
2022/02/05 07:47:23;;;;;;;44.00;22.40;;;;;1.00;97367.40;;;;110963;1249;42089;-61
2022/02/05 07:49:53;;;;;;;;;;;;;1.10;97362.20;;;;111007;1247;41303;-61
2022/02/05 07:52:22;;;;;;;30.80;15.80;;;;;1.12;97361.00;;;;111112;1247;43362;-59
2022/02/05 07:54:52;;;;;;;31.90;14.50;;;;;1.20;97363.20;;;;110860;1247;41286;-61
2022/02/05 07:57:22;;;;;;;48.20;21.70;;;;;1.30;97357.00;;;;111113;1248;41193;-60
2022/02/05 07:59:50;;;;;;;46.20;24.10;;;;;1.38;97354.80;;;;110960;1247;41130;-60
2022/02/05 08:02:21;;;;;;;58.20;25.90;;;;;1.40;97344.20;;;;110817;1249;41136;-61
2022/02/05 08:04:51;;;;;;;52.00;25.80;;;;;1.50;97340.80;;;;111055;1247;41141;-59
2022/02/05 08:07:20;;;;;;;54.30;28.20;;;;;1.54;97318.80;;;;110801;1249;41159;-60
2022/02/05 08:10:02;;;;;;;57.60;28.10;;;;;1.60;97334.20;;;;111020;1247;41168;-58
2022/02/05 08:12:34;;;;;;;72.90;32.30;;;;;1.70;97334.80;;;;110990;1248;42031;-62
2022/02/05 08:15:03;;;;;;;95.20;37.30;;;;;1.70;97340.20;;;;110761;1250;42003;-61
2022/02/05 08:17:35;;;;;;;76.10;31.20;;;;;1.70;97346.60;;;;111060;1247;41724;-61
2022/02/05 08:20:04;;;;;;;59.30;27.30;;;;;1.80;97357.00;;;;110963;1249;41137;-61
2022/02/05 08:22:33;;;;;;;50.50;22.40;;;;;1.80;97359.40;;;;111087;1247;41291;-58
2022/02/05 08:25:03;;;;;;;30.80;15.30;;;;;1.90;97356.60;;;;110962;1246;41485;-62
2022/02/05 08:27:32;;;;;;;30.30;13.30;;;;;2.00;97361.40;;;;111069;1248;41192;-60
2022/02/05 08:30:06;;;;;;;41.00;19.40;;;;;2.06;97358.60;;;;111101;1247;41148;-60
2022/02/05 08:32:35;;;;;;;52.30;25.00;;;;;2.10;97350.60;;;;111052;1248;41225;-58
2022/02/05 08:35:06;;;;;;;55.40;28.20;;;;;2.10;97349.60;;;;110876;1247;41158;-62
2022/02/05 08:37:40;;;;;;;58.30;31.30;;;;;2.10;97354.80;;;;111073;1247;41152;-60
2022/02/05 08:40:10;;;;;;;60.90;29.80;;;;;2.10;97352.80;;;;111000;1249;41151;-62
2022/02/05 08:42:40;;;;;;;50.80;27.60;;;;;2.00;97356.80;;;;110816;1248;41250;-60
2022/02/05 08:45:10;;;;;;;51.20;26.50;;;;;2.00;97354.20;;;;110901;1248;41423;-59
2022/02/05 08:47:40;;;;;;;48.30;23.90;;;;;2.00;97358.00;;;;111075;1247;41266;-59
2022/02/05 08:50:09;;;;;;;47.70;23.60;;;;;2.00;97354.80;;;;111129;1248;41378;-59
2022/02/05 08:52:40;;;;;;;44.10;21.50;;;;;2.00;97354.80;;;;110965;1249;41457;-61
2022/02/05 08:55:09;;;;;;;;;;;;;2.10;97357.60;;;;110660;1252;43054;-62
2022/02/05 08:57:40;;;;;;;37.10;19.60;;;;;2.20;97361.20;;;;110791;1248;42374;-61
2022/02/05 09:00:13;;;;;;;39.10;19.50;;;;;2.30;97367.20;;;;111073;1248;42058;-61
2022/02/05 09:05:27;;;;;;;37.90;19.70;;;;;2.50;97365.60;;;;110817;1250;41954;-61
2022/02/05 09:07:58;;;;;;;43.10;20.20;;;;;2.60;97378.40;;;;110960;1249;41178;-59
2022/02/05 09:10:33;;;;;;;47.50;24.30;;;;;2.70;97377.80;;;;110960;1249;41749;-58
2022/02/05 09:15:43;;;;;;;49.20;24.30;;;;;2.86;97368.40;;;;111107;1247;41154;-59
2022/02/05 09:18:13;;;;;;;43.20;21.50;;;;;2.90;97360.00;;;;111005;1249;41275;-59
2022/02/05 09:20:42;;;;;;;40.50;20.30;;;;;3.00;97367.80;;;;111039;1247;41168;-59
2022/02/05 09:23:11;;;;;;;42.70;20.30;;;;;3.04;97365.40;;;;111065;1248;41137;-60
2022/02/05 09:25:42;;;;;;;45.10;21.30;;;;;3.10;97355.80;;;;111059;1248;41670;-59
2022/02/05 09:28:11;;;;;;;37.10;19.60;;;;;3.10;97356.40;;;;111012;1247;41447;-60
2022/02/05 09:30:50;;;;;;;40.90;21.70;;;;;3.10;97360.80;;;;111186;1247;41561;-61
2022/02/05 09:33:19;;;;;;;40.40;21.50;;;;;3.20;97358.60;;;;111073;1247;41612;-60
2022/02/05 09:35:48;;;;;;;37.10;19.20;;;;;3.20;97356.80;;;;111074;1248;41618;-60
2022/02/05 09:38:19;;;;;;;43.00;20.90;;;;;3.20;97346.20;;;;111094;1248;41257;-62
2022/02/05 09:40:48;;;;;;;45.80;21.40;;;;;3.28;97342.20;;;;111054;1247;41628;-61
2022/02/05 09:43:26;;;;;;;51.50;26.50;;;;;3.30;97339.20;;;;110911;1248;41179;-61
2022/02/05 09:45:57;;;;;;;53.00;27.00;;;;;3.40;97338.20;;;;110972;1249;41932;-60
2022/02/05 09:48:28;;;;;;;;;;;;;3.40;97338.20;;;;111109;1247;41668;-62
2022/02/05 09:51:06;;;;;;;48.50;23.90;;;;;3.50;97333.20;;;;111083;1247;41604;-60
2022/02/05 09:53:35;;;;;;;49.60;24.30;;;;;3.60;97324.00;;;;111039;1246;41607;-61
2022/02/05 09:56:04;;;;;;;55.30;26.20;;;;;3.70;97316.60;;;;111072;1246;41377;-59
2022/02/05 09:58:33;;;;;;;46.40;24.50;;;;;3.80;97323.60;;;;111039;1247;42507;-58
2022/02/05 10:01:11;;;;;;;50.00;25.50;;;;;3.90;97338.00;;;;111094;1246;41152;-58
2022/02/05 10:03:45;;;;;;;38.20;18.30;;;;;4.00;97337.60;;;;111080;1247;41140;-59
2022/02/05 10:06:25;;;;;;;37.60;17.60;;;;;4.10;97337.00;;;;111079;1248;42232;-60
2022/02/05 10:09:09;;;;;;;31.10;15.40;;;;;4.20;97332.60;;;;111084;1247;41166;-58
2022/02/05 10:11:57;;;;;;;40.90;18.80;;;;;4.30;97329.20;;;;111140;1246;41613;-60
2022/02/05 10:14:28;;;;;;;41.40;19.50;;;;;4.40;97327.80;;;;111033;1247;42393;-61
2022/02/05 10:17:00;;;;;;;37.70;18.20;;;;;4.50;97341.80;;;;111049;1247;41148;-60
2022/02/05 10:19:52;;;;;;;41.30;20.20;;;;;4.50;97339.60;;;;110932;1247;41611;-59
2022/02/05 10:22:23;;;;;;;44.20;21.20;;;;;4.30;97354.20;;;;111104;1247;41149;-59
2022/02/05 10:25:02;;;;;;;43.90;19.40;;;;;3.94;97355.60;;;;111016;1247;41148;-60
2022/02/05 10:27:35;;;;;;;31.20;15.60;;;;;3.90;97353.40;;;;111078;1247;41139;-60
2022/02/05 10:30:12;;;;;;;32.00;15.30;;;;;3.96;97344.00;;;;110754;1249;41153;-62
2022/02/05 10:32:42;;;;;;;31.60;15.30;;;;;4.00;97334.60;;;;111073;1247;42106;-59
2022/02/05 10:35:27;;;;;;;34.40;17.10;;;;;4.14;97328.40;;;;111039;1247;41179;-59
2022/02/05 10:40:42;;;;;;;29.90;14.70;;;;;4.86;97316.80;;;;111049;1246;42448;-59
2022/02/05 10:43:13;;;;;;;25.80;12.10;;;;;5.70;97310.80;;;;111066;1247;41253;-59
2022/02/05 10:45:50;;;;;;;28.40;12.90;;;;;6.56;97308.80;;;;110876;1249;41196;-59
2022/02/05 10:48:21;;;;;;;29.60;15.40;;;;;6.82;97311.40;;;;111092;1246;41218;-61
2022/02/05 10:50:53;;;;;;;26.70;12.80;;;;;6.80;97327.20;;;;111054;1247;41263;-62
2022/02/05 10:53:27;;;;;;;26.20;12.80;;;;;6.80;97332.00;;;;111120;1247;41152;-59
2022/02/05 10:56:08;;;;;;;22.80;10.50;;;;;6.90;97327.60;;;;111021;1247;41163;-59
2022/02/05 11:07:10;;;;;;;23.10;10.00;;;;;6.60;97327.60;;;;111099;1247;41369;-60
2022/02/05 11:09:43;;;;;;;21.10;9.80;;;;;6.70;97332.40;;;;111097;1247;41157;-60
2022/02/05 11:20:15;;;;;;;19.50;9.30;;;;;11.32;97266.60;;;;111082;1248;41168;-61
2022/02/05 11:22:55;;;;;;;17.50;8.20;;;;;13.58;97261.00;;;;111032;1246;41156;-60
2022/02/05 11:25:30;;;;;;;16.90;7.30;;;;;15.66;97248.60;;;;111088;1247;41512;-60
2022/02/05 11:27:59;;;;;;;17.20;7.70;;;;;17.34;97225.00;;;;111134;1247;41252;-59
2022/02/05 11:30:34;;;;;;;16.40;7.60;;;;;20.00;97223.40;;;;111071;1247;41494;-60
2022/02/05 11:33:25;;;;;;;19.10;8.70;;;;;22.20;97210.20;;;;111176;1248;42366;-60
2022/02/05 11:38:31;;;;;;;;;;;;;24.10;97210.20;;;;111098;1247;41311;-57
2022/02/05 11:41:03;;;;;;;15.00;6.90;;;;;24.58;97207.20;;;;110961;1248;41395;-59
2022/02/05 11:43:37;;;;;;;14.60;7.00;;;;;24.56;97214.40;;;;110650;1251;41195;-59
2022/02/05 11:46:18;;;;;;;12.40;6.40;;;;;24.98;97199.80;;;;110875;1250;41871;-58
2022/02/05 11:48:50;;;;;;;10.90;5.40;;;;;26.94;97183.00;;;;111049;1250;41347;-59
2022/02/05 11:51:48;;;;;;;11.50;5.40;;;;;28.66;97167.20;;;;110800;1251;41337;-60
2022/02/05 11:54:17;;;;;;;11.30;4.90;;;;;30.24;97166.80;;;;110977;1248;41145;-59
2022/02/05 11:59:32;;;;;;;12.10;6.10;;;;;32.40;97213.60;;;;111105;1247;41700;-60
2022/02/05 12:02:18;;;;;;;13.30;6.00;;;;;28.92;97209.60;;;;111100;1247;41269;-60
2022/02/05 12:05:18;;;;;;;12.70;5.70;;;;;26.78;97230.80;;;;111125;1247;41700;-58
2022/02/05 12:08:05;;;;;;;11.60;5.20;;;;;25.48;97253.60;;;;111114;1247;41173;-59
2022/02/05 12:10:36;;;;;;;12.10;5.60;;;;;24.02;97262.00;;;;111030;1248;41182;-60
2022/02/05 12:13:26;;;;;;;13.10;5.70;;;;;22.64;97262.00;;;;111062;1247;41385;-60
2022/02/05 12:15:55;;;;;;;12.50;6.20;;;;;21.18;97266.40;;;;111123;1247;41174;-59
2022/02/05 12:18:26;;;;;;;14.70;6.60;;;;;18.02;97279.80;;;;111111;1247;41262;-59
2022/02/05 12:23:52;;;;;;;14.20;5.80;;;;;16.48;97279.60;;;;111091;1246;41123;-60
2022/02/05 12:26:25;;;;;;;13.50;6.20;;;;;14.86;97287.40;;;;111074;1248;41282;-60
2022/02/05 12:28:55;;;;;;;16.20;6.70;;;;;14.54;97279.40;;;;111087;1247;41239;-60
2022/02/05 12:31:36;;;;;;;14.70;7.50;;;;;13.70;97279.80;;;;111114;1247;41514;-60
2022/02/05 12:34:12;;;;;;;17.20;8.20;;;;;12.00;97284.80;;;;111167;1248;41130;-59
2022/02/05 12:36:51;;;;;;;16.60;7.50;;;;;12.46;97281.40;;;;111099;1248;41126;-59
2022/02/05 12:39:33;;;;;;;14.70;7.10;;;;;11.86;97265.00;;;;111113;1247;42176;-58
2022/02/05 12:42:12;;;;;;;15.70;7.50;;;;;13.42;97263.60;;;;111093;1246;41135;-59
2022/02/05 12:44:42;;;;;;;12.70;5.90;;;;;15.02;97275.20;;;;111116;1248;41269;-58
2022/02/05 12:47:20;;;;;;;12.20;5.70;;;;;16.84;97256.00;;;;111114;1247;41127;-59
2022/02/05 12:49:57;;;;;;;13.50;5.70;;;;;19.48;97242.00;;;;111117;1247;41163;-58
2022/02/05 12:52:30;;;;;;;13.20;5.40;;;;;21.92;97232.00;;;;111096;1248;41122;-59
2022/02/05 12:55:01;;;;;;;10.40;5.30;;;;;24.06;97229.40;;;;111101;1247;42399;-61
2022/02/05 12:57:31;;;;;;;14.40;6.40;;;;;26.00;97222.20;;;;111050;1248;42038;-60
2022/02/05 13:00:11;;;;;;;10.50;4.60;;;;;27.48;97232.00;;;;111088;1247;41153;-60
2022/02/05 13:02:42;;;;;;;11.70;4.80;;;;;28.70;97229.60;;;;111063;1246;41371;-60
2022/02/05 13:05:11;;;;;;;12.20;5.20;;;;;29.16;97228.00;;;;111060;1246;41148;-62
2022/02/05 13:07:42;;;;;;;11.20;4.90;;;;;29.60;97230.80;;;;111059;1247;41470;-60
2022/02/05 13:10:10;;;;;;;10.90;4.70;;;;;29.64;97226.60;;;;111094;1246;41126;-58
2022/02/05 13:12:42;;;;;;;10.60;5.10;;;;;30.42;97223.40;;;;111105;1246;41147;-59
2022/02/05 13:15:27;;;;;;;10.90;4.80;;;;;31.20;97227.40;;;;111058;1247;41148;-59
2022/02/05 13:26:40;;;;;;;11.70;5.20;;;;;28.14;97268.80;;;;111109;1248;41576;-60
2022/02/05 13:29:25;;;;;;;9.90;4.80;;;;;26.12;97269.00;;;;111063;1247;41189;-59
2022/02/05 13:34:43;;;;;;;13.90;6.00;;;;;22.94;97289.40;;;;111092;1246;41581;-59
2022/02/05 13:37:23;;;;;;;15.20;6.20;;;;;21.74;97291.80;;;;111077;1246;41139;-59
2022/02/05 13:40:01;;;;;;;14.90;6.30;;;;;20.64;97292.60;;;;111218;1246;42036;-60
2022/02/05 13:42:37;;;;;;;13.90;6.40;;;;;19.50;97303.60;;;;111136;1247;41580;-59
2022/02/05 13:45:12;;;;;;;17.10;8.50;;;;;18.64;97300.80;;;;111103;1247;41354;-58
2022/02/05 13:47:44;;;;;;;22.60;12.80;;;;;18.04;97313.20;;;;110901;1247;41368;-59
2022/02/05 13:50:23;;;;;;;24.40;12.60;;;;;17.10;97306.60;;;;111096;1246;41492;-59
2022/02/05 13:52:55;;;;;;;25.60;11.80;;;;;16.44;97312.00;;;;111113;1248;42063;-59
2022/02/05 13:55:25;;;;;;;20.70;10.70;;;;;15.76;97315.00;;;;111148;1247;42299;-59
2022/02/05 13:58:03;;;;;;;26.60;12.90;;;;;15.12;97314.60;;;;111013;1248;41198;-59
2022/02/05 14:00:45;;;;;;;27.30;14.80;;;;;14.40;97319.20;;;;111062;1246;41146;-60
2022/02/05 14:03:27;;;;;;;26.40;14.90;;;;;13.82;97317.60;;;;111108;1247;41140;-60
2022/02/05 14:06:01;;;;;;;28.90;16.60;;;;;13.16;97317.80;;;;111055;1246;42348;-60
2022/02/05 14:08:41;;;;;;;28.50;15.40;;;;;12.56;97329.20;;;;111099;1247;41188;-59
2022/02/05 14:11:31;;;;;;;25.30;14.70;;;;;12.00;97334.40;;;;111048;1246;41156;-59
2022/02/05 14:14:07;;;;;;;30.90;16.40;;;;;11.46;97341.20;;;;111060;1248;41868;-58
2022/02/05 14:16:39;;;;;;;29.70;15.80;;;;;10.52;97343.40;;;;111098;1247;41186;-59
2022/02/05 14:19:08;;;;;;;36.50;19.00;;;;;10.20;97351.20;;;;111061;1246;41835;-59
2022/02/05 14:21:47;;;;;;;34.70;17.70;;;;;9.48;97355.80;;;;111075;1246;41133;-60
2022/02/05 14:24:18;;;;;;;33.60;17.50;;;;;8.94;97358.20;;;;111078;1246;42447;-60
2022/02/05 14:27:06;;;;;;;;;;;;;8.72;97365.40;;;;111113;1247;41553;-59
2022/02/05 14:29:54;;;;;;;35.70;18.00;;;;;8.50;97384.20;;;;111049;1247;41504;-59
2022/02/05 14:32:43;;;;;;;33.30;19.00;;;;;8.30;97388.80;;;;111174;1246;41227;-59
2022/02/05 14:35:34;;;;;;;39.70;20.20;;;;;8.10;97391.80;;;;111158;1245;41361;-58
2022/02/05 14:40:49;;;;;;;43.30;21.50;;;;;7.50;97391.60;;;;111183;1247;41137;-58
2022/02/05 14:43:19;;;;;;;56.20;24.00;;;;;7.34;97390.60;;;;111106;1247;41211;-59
2022/02/05 14:45:48;;;;;;;57.10;25.70;;;;;7.12;97392.40;;;;111158;1246;41233;-59
2022/02/05 14:48:17;;;;;;;41.00;21.10;;;;;7.00;97397.40;;;;111062;1246;41359;-58
2022/02/05 14:50:49;;;;;;;38.60;19.60;;;;;6.90;97407.60;;;;111066;1246;41209;-60
2022/02/05 14:53:18;;;;;;;33.80;16.90;;;;;6.46;97409.20;;;;111081;1247;42454;-59
2022/02/05 14:55:47;;;;;;;28.80;14.70;;;;;6.14;97409.60;;;;111103;1248;41631;-58
2022/02/05 14:58:16;;;;;;;33.90;15.80;;;;;6.08;97415.40;;;;111086;1246;41950;-59
2022/02/05 15:00:45;;;;;;;28.40;15.10;;;;;6.08;97406.00;;;;111118;1246;41156;-59
2022/02/05 15:03:19;;;;;;;36.20;18.20;;;;;6.00;97409.40;;;;111071;1246;42121;-61
2022/02/05 15:05:49;;;;;;;40.10;18.40;;;;;5.90;97411.80;;;;111055;1247;41185;-60
2022/02/05 15:08:18;;;;;;;35.70;17.60;;;;;5.90;97405.60;;;;111095;1246;40895;-60
2022/02/05 15:10:47;;;;;;;32.10;15.20;;;;;5.90;97420.80;;;;111077;1247;41144;-59
2022/02/05 15:13:16;;;;;;;29.50;15.30;;;;;5.90;97421.60;;;;111045;1247;41156;-60
2022/02/05 15:15:51;;;;;;;31.30;15.20;;;;;5.94;97427.00;;;;111026;1248;42598;-59